createdAt,value
2023-01-03T00:01:44.534Z,7.70
2023-01-03T00:04:13.896Z,7.60
2023-01-03T00:06:46.857Z,7.60
2023-01-03T00:09:18.073Z,7.60
2023-01-03T00:12:06.435Z,7.60
2023-01-03T00:14:37.277Z,7.60
2023-01-03T00:17:07.613Z,7.60
2023-01-03T00:19:39.145Z,7.70
2023-01-03T00:22:09.614Z,7.60
2023-01-03T00:24:38.072Z,7.70
2023-01-03T00:27:06.846Z,7.60
2023-01-03T00:29:35.351Z,7.60
2023-01-03T00:32:04.358Z,7.60
2023-01-03T00:34:33.115Z,7.60
2023-01-03T00:37:01.803Z,7.60
2023-01-03T00:39:31.621Z,7.60
2023-01-03T00:42:00.123Z,7.60
2023-01-03T00:44:28.746Z,7.60
2023-01-03T00:46:57.179Z,7.60
2023-01-03T00:49:25.932Z,7.50
2023-01-03T00:51:54.511Z,7.50
2023-01-03T00:54:23.841Z,7.40
2023-01-03T00:56:54.197Z,7.40
2023-01-03T00:59:23.581Z,7.40
2023-01-03T01:01:54.571Z,7.40
2023-01-03T01:04:25.175Z,7.40
2023-01-03T01:06:55.881Z,7.30
2023-01-03T01:09:26.928Z,7.40
2023-01-03T01:11:57.231Z,7.30
2023-01-03T01:14:30.068Z,7.20
2023-01-03T01:17:01.459Z,7.20
2023-01-03T01:19:33.575Z,7.20
2023-01-03T01:22:02.794Z,7.20
2023-01-03T01:24:31.283Z,7.10
2023-01-03T01:27:01.387Z,7.10
2023-01-03T01:29:29.941Z,7.00
2023-01-03T01:31:58.427Z,7.00
2023-01-03T01:34:26.881Z,7.00
2023-01-03T01:36:55.313Z,7.00
2023-01-03T01:39:25.794Z,7.00
2023-01-03T01:42:19.757Z,6.90
2023-01-03T01:44:55.621Z,6.90
2023-01-03T01:47:40.173Z,6.90
2023-01-03T01:50:21.281Z,6.90
2023-01-03T01:52:56.393Z,6.80
2023-01-03T01:55:32.961Z,6.80
2023-01-03T01:58:02.677Z,6.80
2023-01-03T02:00:33.684Z,6.70
2023-01-03T02:03:02.575Z,6.70
2023-01-03T02:05:33.819Z,6.70
2023-01-03T02:08:02.647Z,6.70
2023-01-03T02:10:49.134Z,6.70
2023-01-03T02:13:34.960Z,6.60
2023-01-03T02:16:25.368Z,6.60
2023-01-03T02:19:04.837Z,6.60
2023-01-03T02:22:00.724Z,6.60
2023-01-03T02:25:13.716Z,6.50
2023-01-03T02:28:26.975Z,6.50
2023-01-03T02:31:01.141Z,6.50
2023-01-03T02:33:38.408Z,6.40
2023-01-03T02:36:16.909Z,6.40
2023-01-03T02:38:54.715Z,6.40
2023-01-03T02:41:33.306Z,6.40
2023-01-03T02:44:15.139Z,6.40
2023-01-03T02:46:47.390Z,6.30
2023-01-03T02:49:24.195Z,6.30
2023-01-03T02:51:56.284Z,6.30
2023-01-03T02:54:32.020Z,6.20
2023-01-03T02:57:06.214Z,6.20
2023-01-03T02:59:41.178Z,6.20
2023-01-03T03:02:13.316Z,6.10
2023-01-03T03:04:43.385Z,6.10
2023-01-03T03:07:19.656Z,6.10
2023-01-03T03:10:05.613Z,6.10
2023-01-03T03:12:52.993Z,6.00
2023-01-03T03:15:25.243Z,6.00
2023-01-03T03:18:03.244Z,6.00
2023-01-03T03:20:48.890Z,5.90
2023-01-03T03:23:40.784Z,5.90
2023-01-03T03:26:14.015Z,6.00
2023-01-03T03:28:45.386Z,6.00
2023-01-03T03:31:18.574Z,6.00
2023-01-03T03:33:53.873Z,5.90
2023-01-03T03:36:32.045Z,5.90
2023-01-03T03:39:00.953Z,5.90
2023-01-03T03:41:56.350Z,5.90
2023-01-03T03:44:51.825Z,5.80
2023-01-03T03:47:34.994Z,5.80
2023-01-03T03:50:11.971Z,5.80
2023-01-03T03:52:43.613Z,5.80
2023-01-03T03:55:18.916Z,5.80
2023-01-03T03:57:50.410Z,5.80
2023-01-03T04:00:22.059Z,5.80
2023-01-03T04:02:51.346Z,5.70
2023-01-03T04:05:24.785Z,5.70
2023-01-03T04:07:53.440Z,5.70
2023-01-03T04:10:23.614Z,5.60
2023-01-03T04:12:53.139Z,5.70
2023-01-03T04:15:21.455Z,5.70
2023-01-03T04:17:49.746Z,5.60
2023-01-03T04:20:18.998Z,5.60
2023-01-03T04:22:48.649Z,5.60
2023-01-03T04:25:17.095Z,5.50
2023-01-03T04:27:45.325Z,5.50
2023-01-03T04:30:14.512Z,5.50
2023-01-03T04:32:42.739Z,5.40
2023-01-03T04:35:11.207Z,5.40
2023-01-03T04:37:39.375Z,5.40
2023-01-03T04:40:11.735Z,5.40
2023-01-03T04:42:57.424Z,5.30
2023-01-03T04:45:25.746Z,5.30
2023-01-03T04:47:54.647Z,5.30
2023-01-03T04:50:22.875Z,5.30
2023-01-03T04:52:51.111Z,5.20
2023-01-03T04:55:20.746Z,5.20
2023-01-03T04:57:49.030Z,5.20
2023-01-03T05:00:17.656Z,5.20
2023-01-03T05:02:45.839Z,5.20
2023-01-03T05:05:14.118Z,5.20
2023-01-03T05:07:42.343Z,5.10
2023-01-03T05:10:10.788Z,5.10
2023-01-03T05:12:40.389Z,5.10
2023-01-03T05:15:09.964Z,5.10
2023-01-03T05:17:38.251Z,5.10
2023-01-03T05:20:24.989Z,5.00
2023-01-03T05:23:15.807Z,5.00
2023-01-03T05:25:53.143Z,5.00
2023-01-03T05:28:24.016Z,5.00
2023-01-03T05:30:52.323Z,5.00
2023-01-03T05:33:20.599Z,4.90
2023-01-03T05:35:49.123Z,4.90
2023-01-03T05:38:17.619Z,4.80
2023-01-03T05:40:45.755Z,4.90
2023-01-03T05:43:14.009Z,4.80
2023-01-03T05:45:43.876Z,4.80
2023-01-03T05:48:12.134Z,4.80
2023-01-03T05:50:40.379Z,4.80
2023-01-03T05:53:08.553Z,4.70
2023-01-03T05:55:37.954Z,4.70
2023-01-03T05:58:06.944Z,4.70
2023-01-03T06:00:35.704Z,4.70
2023-01-03T06:03:05.273Z,4.60
2023-01-03T06:05:33.528Z,4.60
2023-01-03T06:08:02.682Z,4.60
2023-01-03T06:10:30.898Z,4.50
2023-01-03T06:12:59.509Z,4.50
2023-01-03T06:15:27.742Z,4.40
2023-01-03T06:17:54.936Z,4.40
2023-01-03T06:20:24.922Z,4.40
2023-01-03T06:22:54.182Z,4.40
2023-01-03T06:25:22.726Z,4.40
2023-01-03T06:27:51.043Z,4.40
2023-01-03T06:30:20.849Z,4.40
2023-01-03T06:32:49.131Z,4.40
2023-01-03T06:35:17.506Z,4.40
2023-01-03T06:37:47.176Z,4.30
2023-01-03T06:40:15.365Z,4.30
2023-01-03T06:42:43.856Z,4.30
2023-01-03T06:45:32.682Z,4.30
2023-01-03T06:48:23.123Z,4.20
2023-01-03T06:51:09.123Z,4.20
2023-01-03T06:53:40.025Z,4.10
2023-01-03T06:56:08.555Z,4.10
2023-01-03T06:58:37.308Z,4.00
2023-01-03T07:01:06.334Z,4.00
2023-01-03T07:03:35.112Z,4.00
2023-01-03T07:06:03.397Z,4.00
2023-01-03T07:08:31.686Z,3.90
2023-01-03T07:11:01.301Z,3.90
2023-01-03T07:13:46.832Z,3.90
2023-01-03T07:16:16.004Z,3.90
2023-01-03T07:18:49.326Z,3.90
2023-01-03T07:21:23.579Z,3.90
2023-01-03T07:23:53.137Z,3.90
2023-01-03T07:26:24.297Z,3.90
2023-01-03T07:28:52.592Z,3.90
2023-01-03T07:31:21.573Z,3.90
2023-01-03T07:33:50.024Z,3.90
2023-01-03T07:36:18.319Z,3.90
2023-01-03T07:38:47.535Z,3.90
2023-01-03T07:41:16.411Z,4.00
2023-01-03T07:43:46.686Z,3.90
2023-01-03T07:46:16.654Z,4.00
2023-01-03T07:48:46.304Z,4.00
2023-01-03T07:51:15.913Z,3.90
2023-01-03T07:53:44.131Z,4.00
2023-01-03T07:56:14.104Z,4.00
2023-01-03T07:58:43.375Z,4.10
2023-01-03T08:01:15.233Z,4.10
2023-01-03T08:03:43.873Z,4.30
2023-01-03T08:06:14.064Z,4.40
2023-01-03T08:08:42.681Z,4.50
2023-01-03T08:11:30.609Z,4.60
2023-01-03T08:13:58.877Z,4.70
2023-01-03T08:16:28.554Z,4.70
2023-01-03T08:18:56.746Z,4.80
2023-01-03T08:21:24.944Z,4.90
2023-01-03T08:23:53.151Z,5.10
2023-01-03T08:26:21.387Z,5.20
2023-01-03T08:28:49.597Z,5.30
2023-01-03T08:31:20.775Z,5.40
2023-01-03T08:33:53.513Z,5.50
2023-01-03T08:36:22.087Z,5.60
2023-01-03T08:38:53.903Z,5.60
2023-01-03T08:41:24.269Z,5.70
2023-01-03T08:43:52.706Z,5.80
2023-01-03T08:46:21.286Z,5.80
2023-01-03T08:48:51.235Z,5.90
2023-01-03T08:51:19.698Z,6.10
2023-01-03T08:53:48.073Z,6.20
2023-01-03T08:56:16.542Z,6.40
2023-01-03T08:58:44.918Z,6.40
2023-01-03T09:01:14.210Z,6.50
2023-01-03T09:03:42.851Z,6.60
2023-01-03T09:06:12.784Z,6.70
2023-01-03T09:08:41.183Z,6.80
2023-01-03T09:11:10.820Z,7.00
2023-01-03T09:13:39.535Z,7.00
2023-01-03T09:16:11.462Z,7.00
2023-01-03T09:18:41.057Z,7.10
2023-01-03T09:21:09.394Z,7.10
2023-01-03T09:23:39.036Z,7.20
2023-01-03T09:26:07.681Z,7.30
2023-01-03T09:28:36.109Z,7.50
2023-01-03T09:31:05.630Z,7.70
2023-01-03T09:33:34.031Z,7.80
2023-01-03T09:36:02.255Z,7.90
2023-01-03T09:38:30.511Z,7.80
2023-01-03T09:41:02.704Z,7.70
2023-01-03T09:43:37.485Z,7.70
2023-01-03T09:46:06.688Z,7.70
2023-01-03T09:48:37.105Z,7.80
2023-01-03T09:51:30.176Z,7.90
2023-01-03T09:54:17.344Z,8.00
2023-01-03T09:57:04.311Z,8.10
2023-01-03T09:59:52.832Z,8.30
2023-01-03T10:02:57.938Z,8.40
2023-01-03T10:05:52.520Z,8.60
2023-01-03T10:08:39.389Z,8.80
2023-01-03T10:11:10.926Z,9.00
2023-01-03T10:14:05.226Z,9.10
2023-01-03T10:16:52.277Z,9.10
2023-01-03T10:20:02.483Z,9.40
2023-01-03T10:22:32.956Z,9.50
2023-01-03T10:25:12.253Z,9.60
2023-01-03T10:27:47.785Z,9.70
2023-01-03T10:30:19.479Z,9.70
2023-01-03T10:33:12.134Z,9.80
2023-01-03T10:35:40.543Z,9.80
2023-01-03T10:38:09.168Z,9.90
2023-01-03T10:40:42.964Z,10.00
2023-01-03T10:43:18.712Z,10.00
2023-01-03T10:45:58.165Z,10.10
2023-01-03T10:48:52.400Z,10.10
2023-01-03T10:51:29.578Z,10.20
2023-01-03T10:54:01.072Z,10.10
2023-01-03T10:56:31.639Z,10.20
2023-01-03T10:59:17.113Z,10.20
2023-01-03T11:02:01.368Z,10.30
2023-01-03T11:04:31.915Z,10.40
2023-01-03T11:07:14.018Z,10.50
2023-01-03T11:09:52.071Z,10.50
2023-01-03T11:12:29.668Z,10.50
2023-01-03T11:15:01.184Z,10.70
2023-01-03T11:17:32.077Z,10.70
2023-01-03T11:20:00.628Z,10.60
2023-01-03T11:22:42.354Z,10.70
2023-01-03T11:25:26.281Z,10.50
2023-01-03T11:28:33.161Z,10.40
2023-01-03T11:31:08.567Z,10.70
2023-01-03T11:34:00.289Z,11.00
2023-01-03T11:36:41.208Z,11.30
2023-01-03T11:39:35.036Z,11.20
2023-01-03T11:42:29.963Z,11.30
2023-01-03T11:45:49.239Z,11.10
2023-01-03T11:48:59.558Z,10.90
2023-01-03T11:51:37.583Z,10.90
2023-01-03T11:54:20.462Z,10.70
2023-01-03T11:56:50.679Z,10.80
2023-01-03T11:59:52.900Z,10.70
2023-01-03T12:02:56.797Z,10.80
2023-01-03T12:05:47.323Z,10.80
2023-01-03T12:08:49.020Z,10.80
2023-01-03T12:11:31.541Z,10.90
2023-01-03T12:14:07.916Z,10.80
2023-01-03T12:16:42.991Z,10.60
2023-01-03T12:19:27.560Z,10.70
2023-01-03T12:22:02.855Z,10.80
2023-01-03T12:24:41.109Z,10.90
2023-01-03T12:27:16.653Z,11.00
2023-01-03T12:29:57.085Z,11.00
2023-01-03T12:32:35.039Z,11.00
2023-01-03T12:35:29.313Z,11.10
2023-01-03T12:37:59.585Z,11.10
2023-01-03T12:40:39.232Z,10.90
2023-01-03T12:43:17.853Z,10.60
2023-01-03T12:45:52.954Z,10.50
2023-01-03T12:48:43.243Z,10.40
2023-01-03T12:51:13.010Z,10.40
2023-01-03T12:53:49.180Z,10.50
2023-01-03T12:57:08.928Z,10.70
2023-01-03T13:00:08.165Z,10.70
2023-01-03T13:02:49.370Z,10.90
2023-01-03T13:05:25.861Z,11.10
2023-01-03T13:08:06.009Z,11.10
2023-01-03T13:10:40.220Z,10.70
2023-01-03T13:13:15.482Z,10.40
2023-01-03T13:15:44.006Z,10.20
2023-01-03T13:18:36.167Z,9.90
2023-01-03T13:21:52.506Z,9.60
2023-01-03T13:24:43.147Z,9.40
2023-01-03T13:27:38.575Z,9.20
2023-01-03T13:30:21.651Z,9.30
2023-01-03T13:32:52.866Z,9.20
2023-01-03T13:35:31.254Z,9.20
2023-01-03T13:38:12.505Z,9.20
2023-01-03T13:41:16.470Z,9.20
2023-01-03T13:43:39.934Z,9.20
2023-01-03T13:46:20.110Z,9.20
2023-01-03T13:48:55.041Z,9.20
2023-01-03T13:51:50.662Z,9.10
2023-01-03T13:55:07.193Z,9.20
2023-01-03T13:57:53.109Z,9.30
2023-01-03T14:00:24.851Z,9.50
2023-01-03T14:03:12.463Z,9.60
2023-01-03T14:06:36.352Z,9.70
2023-01-03T14:09:36.485Z,9.60
2023-01-03T14:12:26.849Z,9.60
2023-01-03T14:14:57.552Z,9.60
2023-01-03T14:17:32.317Z,9.70
2023-01-03T14:20:07.868Z,9.50
2023-01-03T14:22:40.697Z,9.50
2023-01-03T14:25:29.056Z,9.30
2023-01-03T14:27:58.177Z,9.30
2023-01-03T14:30:32.598Z,9.20
2023-01-03T14:33:02.805Z,9.00
2023-01-03T14:35:36.972Z,8.80
2023-01-03T14:38:07.297Z,8.70
2023-01-03T14:40:36.343Z,8.70
2023-01-03T14:43:07.833Z,8.60
2023-01-03T14:45:37.564Z,8.50
2023-01-03T14:48:08.074Z,8.40
2023-01-03T14:50:36.520Z,8.30
2023-01-03T14:53:04.968Z,8.30
2023-01-03T14:55:35.082Z,8.20
2023-01-03T14:58:18.286Z,8.20
2023-01-03T15:00:46.894Z,8.30
2023-01-03T15:03:16.921Z,8.20
2023-01-03T15:05:45.590Z,8.20
2023-01-03T15:08:27.110Z,8.20
2023-01-03T15:11:00.231Z,8.10
2023-01-03T15:13:34.985Z,8.00
2023-01-03T15:16:06.947Z,7.90
2023-01-03T15:18:46.897Z,7.80
2023-01-03T15:21:21.828Z,7.70
2023-01-03T15:23:50.718Z,7.60
2023-01-03T15:26:22.048Z,7.50
2023-01-03T15:28:53.839Z,7.30
2023-01-03T15:31:37.312Z,7.20
2023-01-03T15:34:19.399Z,7.20
2023-01-03T15:36:52.868Z,7.10
2023-01-03T15:39:25.956Z,7.00
2023-01-03T15:42:43.382Z,7.00
2023-01-03T15:45:11.593Z,7.00
2023-01-03T15:47:40.753Z,7.00
2023-01-03T15:50:18.832Z,7.00
2023-01-03T15:52:47.955Z,7.00
2023-01-03T15:55:19.233Z,6.90
2023-01-03T15:57:51.404Z,6.80
2023-01-03T16:00:22.157Z,6.70
2023-01-03T16:02:50.782Z,6.70
2023-01-03T16:05:22.917Z,6.60
2023-01-03T16:07:51.723Z,6.50
2023-01-03T16:10:21.757Z,6.40
2023-01-03T16:12:50.435Z,6.40
2023-01-03T16:15:21.180Z,6.40
2023-01-03T16:17:50.694Z,6.30
2023-01-03T16:20:21.393Z,6.30
2023-01-03T16:23:01.138Z,6.30
2023-01-03T16:25:30.691Z,6.20
2023-01-03T16:27:59.141Z,6.20
2023-01-03T16:30:27.702Z,6.10
2023-01-03T16:32:56.144Z,6.00
2023-01-03T16:35:26.201Z,5.90
2023-01-03T16:37:54.666Z,5.80
2023-01-03T16:40:23.203Z,5.70
2023-01-03T16:42:51.625Z,5.60
2023-01-03T16:45:20.263Z,5.60
2023-01-03T16:47:49.726Z,5.50
2023-01-03T16:50:21.162Z,5.40
2023-01-03T16:52:58.154Z,5.40
2023-01-03T16:55:29.851Z,5.30
2023-01-03T16:57:59.044Z,5.40
2023-01-03T17:00:29.858Z,5.30
2023-01-03T17:03:00.157Z,5.30
2023-01-03T17:05:30.210Z,5.10
2023-01-03T17:08:06.541Z,5.10
2023-01-03T17:10:40.344Z,5.00
2023-01-03T17:13:20.694Z,5.00
2023-01-03T17:15:49.199Z,5.00
2023-01-03T17:18:19.954Z,5.00
2023-01-03T17:20:53.989Z,5.00
2023-01-03T17:23:24.482Z,5.00
2023-01-03T17:25:53.047Z,5.00
2023-01-03T17:28:21.875Z,5.00
2023-01-03T17:30:51.524Z,5.00
2023-01-03T17:33:20.000Z,4.90
2023-01-03T17:35:48.952Z,4.90
2023-01-03T17:38:26.684Z,5.00
2023-01-03T17:40:57.454Z,4.90
2023-01-03T17:43:27.184Z,4.80
2023-01-03T17:46:22.604Z,4.80
2023-01-03T17:49:09.101Z,4.80
2023-01-03T17:51:37.561Z,4.80
2023-01-03T17:54:06.268Z,4.90
2023-01-03T17:56:37.379Z,4.90
2023-01-03T17:59:05.969Z,4.80
2023-01-03T18:01:35.318Z,4.90
2023-01-03T18:04:03.924Z,4.90
2023-01-03T18:06:32.535Z,4.90
2023-01-03T18:09:05.629Z,4.90
2023-01-03T18:11:35.544Z,5.00
2023-01-03T18:14:04.039Z,5.00
2023-01-03T18:16:32.599Z,5.10
2023-01-03T18:19:01.084Z,5.10
2023-01-03T18:21:29.548Z,5.10
2023-01-03T18:24:01.064Z,5.20
2023-01-03T18:26:39.776Z,5.10
2023-01-03T18:29:12.038Z,5.10
2023-01-03T18:31:40.844Z,5.10
2023-01-03T18:34:10.126Z,5.10
2023-01-03T18:36:42.693Z,5.10
2023-01-03T18:39:15.572Z,5.10
2023-01-03T18:41:46.055Z,5.10
2023-01-03T18:44:23.075Z,5.10
2023-01-03T18:46:52.716Z,5.10
2023-01-03T18:49:21.419Z,5.10
2023-01-03T18:51:53.972Z,5.10
2023-01-03T18:54:22.510Z,5.10
2023-01-03T18:56:52.340Z,5.10
2023-01-03T18:59:24.832Z,5.10
2023-01-03T19:01:53.847Z,5.10
2023-01-03T19:04:22.587Z,5.10
2023-01-03T19:06:52.187Z,5.10
2023-01-03T19:09:23.762Z,5.10
2023-01-03T19:11:55.360Z,5.10
2023-01-03T19:14:23.840Z,5.20
2023-01-03T19:16:52.295Z,5.20
2023-01-03T19:19:20.761Z,5.10
2023-01-03T19:21:49.750Z,5.10
2023-01-03T19:24:25.715Z,5.20
2023-01-03T19:26:58.518Z,5.20
2023-01-03T19:29:36.709Z,5.20
2023-01-03T19:32:08.238Z,5.20
2023-01-03T19:34:36.652Z,5.20
2023-01-03T19:37:05.309Z,5.10
2023-01-03T19:39:37.384Z,5.10
2023-01-03T19:42:31.403Z,5.10
2023-01-03T19:45:01.191Z,5.10
2023-01-03T19:47:29.745Z,5.10
2023-01-03T19:49:59.354Z,5.00
2023-01-03T19:52:27.853Z,5.10
2023-01-03T19:54:56.409Z,5.10
2023-01-03T19:57:33.037Z,5.10
2023-01-03T20:00:03.725Z,5.10
2023-01-03T20:02:39.914Z,5.10
2023-01-03T20:05:19.710Z,5.10
2023-01-03T20:07:49.698Z,5.10
2023-01-03T20:10:21.555Z,5.10
2023-01-03T20:12:54.635Z,5.10
2023-01-03T20:15:26.611Z,5.10
2023-01-03T20:17:55.664Z,5.10
2023-01-03T20:20:29.515Z,5.10
2023-01-03T20:23:15.876Z,5.10
2023-01-03T20:25:45.613Z,5.10
2023-01-03T20:28:29.000Z,5.10
2023-01-03T20:30:58.396Z,5.20
2023-01-03T20:33:27.581Z,5.20
2023-01-03T20:36:14.421Z,5.20
2023-01-03T20:38:50.621Z,5.20
2023-01-03T20:41:20.556Z,5.20
2023-01-03T20:43:52.293Z,5.20
2023-01-03T20:46:22.979Z,5.20
2023-01-03T20:48:57.483Z,5.20
2023-01-03T20:51:26.637Z,5.20
2023-01-03T20:53:55.678Z,5.20
2023-01-03T20:56:24.620Z,5.20
2023-01-03T20:58:54.514Z,5.20
2023-01-03T21:01:23.115Z,5.20
2023-01-03T21:03:51.769Z,5.20
2023-01-03T21:06:23.016Z,5.20
2023-01-03T21:08:57.797Z,5.20
2023-01-03T21:11:29.298Z,5.20
2023-01-03T21:14:01.011Z,5.20
2023-01-03T21:16:36.640Z,5.30
2023-01-03T21:19:13.360Z,5.30
2023-01-03T21:21:43.245Z,5.20
2023-01-03T21:24:12.788Z,5.30
2023-01-03T21:26:41.350Z,5.20
2023-01-03T21:29:26.325Z,5.30
2023-01-03T21:31:54.821Z,5.30
2023-01-03T21:34:23.689Z,5.30
2023-01-03T21:36:52.242Z,5.30
2023-01-03T21:39:20.747Z,5.30
2023-01-03T21:42:06.463Z,5.30
2023-01-03T21:44:36.354Z,5.30
2023-01-03T21:47:04.795Z,5.30
2023-01-03T21:49:33.462Z,5.30
2023-01-03T21:52:01.882Z,5.30
2023-01-03T21:54:30.329Z,5.30
2023-01-03T21:56:58.789Z,5.30
2023-01-03T21:59:27.240Z,5.30
2023-01-03T22:02:14.632Z,5.40
2023-01-03T22:04:43.084Z,5.30
2023-01-03T22:07:11.657Z,5.40
2023-01-03T22:09:57.462Z,5.40
2023-01-03T22:12:25.961Z,5.30
2023-01-03T22:14:54.377Z,5.40
2023-01-03T22:17:24.281Z,5.40
2023-01-03T22:19:52.815Z,5.40
2023-01-03T22:22:21.195Z,5.40
2023-01-03T22:24:49.758Z,5.40
2023-01-03T22:27:18.608Z,5.40
2023-01-03T22:29:47.025Z,5.40
2023-01-03T22:32:15.412Z,5.40
2023-01-03T22:34:45.292Z,5.40
2023-01-03T22:37:13.980Z,5.40
2023-01-03T22:39:42.454Z,5.40
2023-01-03T22:42:16.004Z,5.50
2023-01-03T22:44:48.721Z,5.50
2023-01-03T22:47:17.570Z,5.50
2023-01-03T22:49:47.402Z,5.50
2023-01-03T22:52:15.794Z,5.40
2023-01-03T22:54:44.314Z,5.50
2023-01-03T22:57:12.719Z,5.40
2023-01-03T22:59:41.170Z,5.40
2023-01-03T23:02:09.796Z,5.40
2023-01-03T23:04:38.382Z,5.40
2023-01-03T23:07:08.246Z,5.40
2023-01-03T23:09:36.663Z,5.40
2023-01-03T23:12:22.693Z,5.40
2023-01-03T23:14:51.132Z,5.40
2023-01-03T23:17:37.117Z,5.40
2023-01-03T23:20:06.726Z,5.40
2023-01-03T23:22:36.633Z,5.50
2023-01-03T23:25:06.072Z,5.50
2023-01-03T23:27:34.802Z,5.50
2023-01-03T23:30:03.245Z,5.40
2023-01-03T23:32:33.570Z,5.50
2023-01-03T23:35:02.048Z,5.50
2023-01-03T23:37:30.475Z,5.50
2023-01-03T23:40:00.331Z,5.50
2023-01-03T23:42:30.563Z,5.60
2023-01-03T23:44:58.963Z,5.50
2023-01-03T23:47:27.449Z,5.50
2023-01-03T23:49:55.806Z,5.60
2023-01-03T23:52:24.274Z,5.60
2023-01-03T23:54:59.569Z,5.60
2023-01-03T23:57:31.573Z,5.70
2023-01-03T23:59:59.971Z,5.70
